RCF311F OIIE-UNKL
Flight info
| Callsign | RCF311F |
|---|---|
| Flight time | 4h 39m |
| Altitude | 33000 |
| Route | DHN Q17 GGN A414 BRD L720 RIKOP B114 ABDAN R433 AGNAN/K0882F330 N990 GORVA/K0874F350 N990 DZG L51 KRG T649 LAGMO A366 KESED A309 ROTLI A300 RANET |
| Aircraft | MD11/H-SDE1E2E3FGHIJ2J3J4J5M1RWXY/LB1D1 |
Departure
| Time | 2026-05-05 16:54 |
|---|---|
| Airport | Imam Khomeini International Airport (OIIE) |
Arrival
| Time | 2026-05-05 21:34 |
|---|---|
| Airport | Krasnoyarsk International Airport (UNKL) |
| Time | Latitude | Longitude | Altitude | Speed | Heading |
|---|---|---|---|---|---|
| 2026-05-05 16:19 | 35.41273 | 51.14649 | 3325 ft | 0 kts | 199° |
| 2026-05-05 16:38 | 35.41278 | 51.14652 | 3325 ft | 2 kts | 191° |
| 2026-05-05 16:38 | 35.41293 | 51.14655 | 3325 ft | 2 kts | 203° |
| 2026-05-05 16:38 | 35.41305 | 51.14664 | 3325 ft | 2 kts | 219° |
| 2026-05-05 16:39 | 35.41316 | 51.14677 | 3325 ft | 2 kts | 230° |
| 2026-05-05 16:39 | 35.41324 | 51.14691 | 3325 ft | 2 kts | 242° |
| 2026-05-05 16:39 | 35.41330 | 51.14708 | 3325 ft | 2 kts | 253° |
| 2026-05-05 16:39 | 35.41333 | 51.14726 | 3325 ft | 2 kts | 265° |
| 2026-05-05 16:40 | 35.41333 | 51.14744 | 3325 ft | 2 kts | 276° |
| 2026-05-05 16:40 | 35.41330 | 51.14762 | 3325 ft | 2 kts | 288° |
| 2026-05-05 16:40 | 35.41325 | 51.14778 | 3325 ft | 2 kts | 289° |
| 2026-05-05 16:40 | 35.41320 | 51.14796 | 3325 ft | 2 kts | 288° |
| 2026-05-05 16:41 | 35.41316 | 51.14813 | 3325 ft | 1 kts | 288° |
| 2026-05-05 16:41 | 35.41316 | 51.14814 | 3325 ft | 0 kts | 288° |
| 2026-05-05 16:43 | 35.41316 | 51.14812 | 3325 ft | 1 kts | 288° |
| 2026-05-05 16:44 | 35.41320 | 51.14797 | 3325 ft | 0 kts | 288° |
| 2026-05-05 16:44 | 35.41326 | 51.14777 | 3325 ft | 4 kts | 288° |
| 2026-05-05 16:44 | 35.41338 | 51.14731 | 3325 ft | 7 kts | 288° |
| 2026-05-05 16:44 | 35.41357 | 51.14663 | 3325 ft | 9 kts | 289° |
| 2026-05-05 16:45 | 35.41378 | 51.14587 | 3325 ft | 9 kts | 289° |
| 2026-05-05 16:45 | 35.41401 | 51.14509 | 3325 ft | 9 kts | 289° |
| 2026-05-05 16:45 | 35.41423 | 51.14429 | 3325 ft | 10 kts | 289° |
| 2026-05-05 16:45 | 35.41446 | 51.14348 | 3325 ft | 10 kts | 289° |
| 2026-05-05 16:46 | 35.41467 | 51.14276 | 3325 ft | 5 kts | 301° |
| 2026-05-05 16:46 | 35.41501 | 51.14262 | 3325 ft | 5 kts | 3° |
| 2026-05-05 16:46 | 35.41533 | 51.14270 | 3325 ft | 4 kts | 18° |
| 2026-05-05 16:46 | 35.41563 | 51.14283 | 3325 ft | 4 kts | 19° |
| 2026-05-05 16:47 | 35.41602 | 51.14299 | 3325 ft | 7 kts | 19° |
| 2026-05-05 16:47 | 35.41654 | 51.14286 | 3325 ft | 9 kts | 308° |
| 2026-05-05 16:47 | 35.41684 | 51.14196 | 3325 ft | 13 kts | 289° |
| 2026-05-05 16:47 | 35.41717 | 51.14077 | 3325 ft | 15 kts | 289° |
| 2026-05-05 16:48 | 35.41753 | 51.13949 | 3325 ft | 16 kts | 289° |
| 2026-05-05 16:48 | 35.41789 | 51.13818 | 3325 ft | 16 kts | 288° |
| 2026-05-05 16:48 | 35.41826 | 51.13687 | 3325 ft | 16 kts | 288° |
| 2026-05-05 16:48 | 35.41862 | 51.13553 | 3325 ft | 16 kts | 289° |
| 2026-05-05 16:49 | 35.41901 | 51.13443 | 3325 ft | 12 kts | 317° |
| 2026-05-05 16:49 | 35.41976 | 51.13438 | 3325 ft | 10 kts | 353° |
| 2026-05-05 16:49 | 35.42025 | 51.13382 | 3325 ft | 9 kts | 291° |
| 2026-05-05 16:49 | 35.42048 | 51.13303 | 3325 ft | 10 kts | 289° |
| 2026-05-05 16:50 | 35.42072 | 51.13219 | 3325 ft | 10 kts | 288° |
| 2026-05-05 16:50 | 35.42097 | 51.13127 | 3325 ft | 11 kts | 289° |
| 2026-05-05 16:50 | 35.42125 | 51.13029 | 3325 ft | 12 kts | 289° |
| 2026-05-05 16:50 | 35.42155 | 51.12923 | 3325 ft | 13 kts | 289° |
| 2026-05-05 16:51 | 35.42189 | 51.12802 | 3325 ft | 16 kts | 289° |
| 2026-05-05 16:51 | 35.42228 | 51.12661 | 3325 ft | 18 kts | 288° |
| 2026-05-05 16:51 | 35.42271 | 51.12502 | 3325 ft | 20 kts | 289° |
| 2026-05-05 16:51 | 35.42314 | 51.12349 | 3325 ft | 12 kts | 290° |
| 2026-05-05 16:52 | 35.42384 | 51.12316 | 3325 ft | 13 kts | 19° |
| 2026-05-05 16:52 | 35.42471 | 51.12354 | 3325 ft | 9 kts | 24° |
| 2026-05-05 16:52 | 35.42483 | 51.12395 | 3325 ft | 5 kts | 101° |
| 2026-05-05 16:52 | 35.42477 | 51.12419 | 3325 ft | 0 kts | 107° |
| 2026-05-05 16:53 | 35.42473 | 51.12438 | 3325 ft | 15 kts | 107° |
| 2026-05-05 16:53 | 35.42361 | 51.12841 | 3325 ft | 84 kts | 109° |
| 2026-05-05 16:54 | 35.42102 | 51.13771 | 3326 ft | 144 kts | 109° |
| 2026-05-05 16:54 | 35.41719 | 51.15138 | 3350 ft | 188 kts | 109° |
| 2026-05-05 16:54 | 35.41304 | 51.16632 | 3908 ft | 183 kts | 110° |
| 2026-05-05 16:54 | 35.40946 | 51.18113 | 4432 ft | 184 kts | 103° |
| 2026-05-05 16:55 | 35.40736 | 51.19662 | 4945 ft | 188 kts | 98° |
| 2026-05-05 16:55 | 35.40598 | 51.21273 | 5341 ft | 193 kts | 96° |
| 2026-05-05 16:55 | 35.40472 | 51.22899 | 5717 ft | 197 kts | 97° |
| 2026-05-05 16:55 | 35.40323 | 51.24588 | 6099 ft | 201 kts | 98° |
| 2026-05-05 16:56 | 35.40152 | 51.26303 | 6483 ft | 204 kts | 99° |
| 2026-05-05 16:56 | 35.39959 | 51.28085 | 6678 ft | 224 kts | 99° |
| 2026-05-05 16:56 | 35.39735 | 51.30103 | 6819 ft | 250 kts | 99° |
| 2026-05-05 16:56 | 35.39493 | 51.32330 | 7037 ft | 276 kts | 99° |
| 2026-05-05 16:57 | 35.39244 | 51.34712 | 7511 ft | 293 kts | 99° |
| 2026-05-05 16:57 | 35.38986 | 51.37235 | 8216 ft | 303 kts | 99° |
| 2026-05-05 16:57 | 35.38727 | 51.39809 | 9051 ft | 308 kts | 99° |
| 2026-05-05 16:57 | 35.38463 | 51.42424 | 9883 ft | 313 kts | 100° |
| 2026-05-05 16:58 | 35.38191 | 51.45096 | 10512 ft | 326 kts | 101° |
| 2026-05-05 16:58 | 35.37890 | 51.47984 | 10701 ft | 355 kts | 100° |
| 2026-05-05 16:58 | 35.37564 | 51.51095 | 10857 ft | 385 kts | 100° |
| 2026-05-05 16:58 | 35.37225 | 51.54447 | 11361 ft | 403 kts | 100° |
| 2026-05-05 16:59 | 35.36884 | 51.57863 | 12081 ft | 414 kts | 100° |
| 2026-05-05 16:59 | 35.36532 | 51.61405 | 12888 ft | 422 kts | 100° |
| 2026-05-05 16:59 | 35.36176 | 51.64957 | 13697 ft | 429 kts | 100° |
| 2026-05-05 16:59 | 35.35812 | 51.68591 | 14581 ft | 434 kts | 101° |
| 2026-05-05 17:00 | 35.35433 | 51.72311 | 15395 ft | 440 kts | 101° |
| 2026-05-05 17:00 | 35.35057 | 51.76058 | 16201 ft | 446 kts | 101° |
| 2026-05-05 17:00 | 35.34679 | 51.79858 | 17044 ft | 451 kts | 101° |
| 2026-05-05 17:00 | 35.34306 | 51.83638 | 17826 ft | 457 kts | 101° |
| 2026-05-05 17:01 | 35.33923 | 51.87515 | 18653 ft | 461 kts | 101° |
| 2026-05-05 17:01 | 35.33541 | 51.91428 | 19464 ft | 465 kts | 101° |
| 2026-05-05 17:01 | 35.33157 | 51.95321 | 20251 ft | 468 kts | 101° |
| 2026-05-05 17:01 | 35.32764 | 51.99328 | 20964 ft | 474 kts | 101° |
| 2026-05-05 17:02 | 35.32379 | 52.03327 | 21746 ft | 477 kts | 101° |
| 2026-05-05 17:02 | 35.31987 | 52.07375 | 22465 ft | 481 kts | 101° |
| 2026-05-05 17:02 | 35.31592 | 52.11442 | 23200 ft | 485 kts | 101° |
| 2026-05-05 17:02 | 35.31199 | 52.15503 | 23911 ft | 490 kts | 101° |
| 2026-05-05 17:03 | 35.30798 | 52.19694 | 24592 ft | 494 kts | 101° |
| 2026-05-05 17:03 | 35.30387 | 52.23866 | 25177 ft | 499 kts | 101° |
| 2026-05-05 17:03 | 35.29929 | 52.28072 | 25772 ft | 504 kts | 102° |
| 2026-05-05 17:03 | 35.29450 | 52.32358 | 26361 ft | 509 kts | 101° |
| 2026-05-05 17:04 | 35.28986 | 52.36638 | 26964 ft | 513 kts | 101° |
| 2026-05-05 17:04 | 35.28535 | 52.40976 | 27571 ft | 517 kts | 101° |
| 2026-05-05 17:04 | 35.28085 | 52.45324 | 28142 ft | 522 kts | 101° |
| 2026-05-05 17:04 | 35.27615 | 52.49737 | 28870 ft | 523 kts | 100° |
| 2026-05-05 17:05 | 35.27144 | 52.54136 | 29669 ft | 522 kts | 100° |
| 2026-05-05 17:05 | 35.26691 | 52.58493 | 30422 ft | 521 kts | 100° |
| 2026-05-05 17:05 | 35.26377 | 52.62877 | 31068 ft | 524 kts | 92° |
| 2026-05-05 17:05 | 35.26601 | 52.67337 | 31697 ft | 527 kts | 83° |
| 2026-05-05 17:06 | 35.27413 | 52.71769 | 32231 ft | 530 kts | 73° |
| 2026-05-05 17:06 | 35.28783 | 52.75940 | 32817 ft | 529 kts | 63° |
| 2026-05-05 17:06 | 35.30645 | 52.79783 | 33052 ft | 527 kts | 53° |
| 2026-05-05 17:06 | 35.32957 | 52.83211 | 33035 ft | 521 kts | 42° |
| 2026-05-05 17:07 | 35.35695 | 52.86057 | 33108 ft | 516 kts | 31° |
| 2026-05-05 17:07 | 35.38805 | 52.88278 | 33147 ft | 513 kts | 21° |
| 2026-05-05 17:07 | 35.45256 | 52.91979 | 33148 ft | 517 kts | 27° |
| 2026-05-05 17:08 | 35.51201 | 52.97031 | 33198 ft | 521 kts | 36° |
| 2026-05-05 17:08 | 35.56852 | 53.02601 | 33221 ft | 520 kts | 36° |
| 2026-05-05 17:09 | 35.62478 | 53.08157 | 33234 ft | 520 kts | 36° |
| 2026-05-05 17:09 | 35.68112 | 53.13728 | 33246 ft | 519 kts | 36° |
| 2026-05-05 17:10 | 35.73739 | 53.19295 | 33268 ft | 520 kts | 36° |
| 2026-05-05 17:10 | 35.79366 | 53.24863 | 33298 ft | 520 kts | 36° |
| 2026-05-05 17:11 | 35.85011 | 53.30446 | 33304 ft | 520 kts | 36° |
| 2026-05-05 17:11 | 35.90640 | 53.36001 | 33306 ft | 519 kts | 35° |
| 2026-05-05 17:12 | 35.96285 | 53.41585 | 33305 ft | 519 kts | 35° |
| 2026-05-05 17:12 | 36.01931 | 53.47150 | 33300 ft | 518 kts | 35° |
| 2026-05-05 17:13 | 36.07555 | 53.52706 | 33281 ft | 518 kts | 36° |
| 2026-05-05 17:13 | 36.13163 | 53.58230 | 33257 ft | 519 kts | 36° |
| 2026-05-05 17:14 | 36.18821 | 53.63816 | 33229 ft | 520 kts | 36° |
| 2026-05-05 17:14 | 36.24477 | 53.69475 | 33203 ft | 520 kts | 37° |
| 2026-05-05 17:15 | 36.30130 | 53.75067 | 33187 ft | 520 kts | 36° |
| 2026-05-05 17:15 | 36.35761 | 53.80647 | 33177 ft | 520 kts | 37° |
| 2026-05-05 17:16 | 36.41382 | 53.86247 | 33182 ft | 519 kts | 36° |
| 2026-05-05 17:16 | 36.47047 | 53.91867 | 33184 ft | 520 kts | 36° |
| 2026-05-05 17:17 | 36.52706 | 53.97479 | 33194 ft | 522 kts | 37° |
| 2026-05-05 17:17 | 36.58369 | 54.03086 | 33170 ft | 521 kts | 36° |
| 2026-05-05 17:18 | 36.64016 | 54.08685 | 33108 ft | 521 kts | 37° |
| 2026-05-05 17:18 | 36.69702 | 54.14318 | 33045 ft | 521 kts | 37° |
| 2026-05-05 17:19 | 36.75332 | 54.19973 | 33002 ft | 521 kts | 37° |
| 2026-05-05 17:19 | 36.80972 | 54.25635 | 32983 ft | 521 kts | 37° |
| 2026-05-05 17:20 | 36.86643 | 54.31298 | 32977 ft | 522 kts | 37° |
| 2026-05-05 17:20 | 36.91943 | 54.37548 | 32962 ft | 523 kts | 52° |
| 2026-05-05 17:21 | 36.93925 | 54.41355 | 32992 ft | 523 kts | 63° |
| 2026-05-05 17:21 | 36.95365 | 54.45478 | 32988 ft | 522 kts | 73° |
| 2026-05-05 17:22 | 36.97214 | 54.58817 | 32957 ft | 520 kts | 83° |
| 2026-05-05 17:22 | 36.98625 | 54.67706 | 32953 ft | 521 kts | 78° |
| 2026-05-05 17:23 | 37.00341 | 54.76475 | 32952 ft | 521 kts | 78° |
| 2026-05-05 17:23 | 37.02095 | 54.85251 | 32952 ft | 520 kts | 77° |
| 2026-05-05 17:24 | 37.03862 | 54.94017 | 32956 ft | 520 kts | 77° |
| 2026-05-05 17:24 | 37.05619 | 55.02801 | 32956 ft | 519 kts | 77° |
| 2026-05-05 17:25 | 37.07377 | 55.11549 | 32957 ft | 519 kts | 77° |
| 2026-05-05 17:25 | 37.09152 | 55.20294 | 32979 ft | 520 kts | 77° |
| 2026-05-05 17:26 | 37.10862 | 55.29097 | 33004 ft | 522 kts | 78° |
| 2026-05-05 17:26 | 37.12543 | 55.37933 | 33015 ft | 523 kts | 77° |
| 2026-05-05 17:27 | 37.14242 | 55.46778 | 33029 ft | 522 kts | 77° |
| 2026-05-05 17:27 | 37.15956 | 55.55629 | 33039 ft | 524 kts | 77° |
| 2026-05-05 17:28 | 37.17683 | 55.64502 | 33058 ft | 524 kts | 77° |
| 2026-05-05 17:28 | 37.19415 | 55.73402 | 33079 ft | 525 kts | 77° |
| 2026-05-05 17:29 | 37.21159 | 55.82302 | 33129 ft | 525 kts | 77° |
| 2026-05-05 17:29 | 37.22902 | 55.91137 | 33130 ft | 525 kts | 77° |
| 2026-05-05 17:30 | 37.24665 | 56.00077 | 33126 ft | 526 kts | 77° |
| 2026-05-05 17:30 | 37.26437 | 56.08960 | 33114 ft | 527 kts | 77° |
| 2026-05-05 17:31 | 37.28206 | 56.17888 | 33122 ft | 527 kts | 77° |
| 2026-05-05 17:31 | 37.29942 | 56.26831 | 33142 ft | 526 kts | 78° |
| 2026-05-05 17:32 | 37.31580 | 56.35777 | 33144 ft | 527 kts | 78° |
| 2026-05-05 17:32 | 37.33233 | 56.44688 | 33145 ft | 527 kts | 77° |
| 2026-05-05 17:33 | 37.34925 | 56.53674 | 33143 ft | 528 kts | 77° |
| 2026-05-05 17:33 | 37.36599 | 56.62604 | 33130 ft | 526 kts | 76° |
| 2026-05-05 17:34 | 37.38309 | 56.71571 | 33117 ft | 526 kts | 77° |
| 2026-05-05 17:34 | 37.40000 | 56.80550 | 33113 ft | 527 kts | 77° |
| 2026-05-05 17:35 | 37.41667 | 56.89515 | 33114 ft | 526 kts | 78° |
| 2026-05-05 17:35 | 37.43269 | 56.98466 | 33119 ft | 526 kts | 77° |
| 2026-05-05 17:36 | 37.44908 | 57.07391 | 33118 ft | 526 kts | 77° |
| 2026-05-05 17:36 | 37.46550 | 57.16361 | 33111 ft | 524 kts | 77° |
| 2026-05-05 17:37 | 37.48204 | 57.25281 | 33111 ft | 524 kts | 77° |
| 2026-05-05 17:37 | 37.49852 | 57.34189 | 33097 ft | 523 kts | 77° |
| 2026-05-05 17:38 | 37.51582 | 57.43044 | 33088 ft | 522 kts | 76° |
| 2026-05-05 17:38 | 37.53282 | 57.51897 | 33077 ft | 521 kts | 76° |
| 2026-05-05 17:39 | 37.54967 | 57.60706 | 33082 ft | 519 kts | 76° |
| 2026-05-05 17:39 | 37.56676 | 57.69567 | 33095 ft | 519 kts | 77° |
| 2026-05-05 17:40 | 37.58396 | 57.78433 | 33136 ft | 518 kts | 76° |
| 2026-05-05 17:40 | 37.60108 | 57.87209 | 33178 ft | 516 kts | 76° |
| 2026-05-05 17:41 | 37.61819 | 57.95958 | 33200 ft | 515 kts | 76° |
| 2026-05-05 17:41 | 37.63541 | 58.04705 | 33224 ft | 514 kts | 76° |
| 2026-05-05 17:42 | 37.65337 | 58.13406 | 33209 ft | 512 kts | 70° |
| 2026-05-05 17:42 | 37.68632 | 58.21190 | 33272 ft | 506 kts | 49° |
| 2026-05-05 17:43 | 37.73772 | 58.27126 | 33293 ft | 499 kts | 29° |
| 2026-05-05 17:43 | 37.80078 | 58.30442 | 33226 ft | 490 kts | 8° |
| 2026-05-05 17:44 | 37.86826 | 58.31056 | 33107 ft | 484 kts | 357° |
| 2026-05-05 17:44 | 37.93568 | 58.31815 | 33020 ft | 489 kts | 6° |
| 2026-05-05 17:44 | 37.96874 | 58.32859 | 32952 ft | 493 kts | 17° |
| 2026-05-05 17:45 | 38.00010 | 58.34638 | 32945 ft | 497 kts | 27° |
| 2026-05-05 17:45 | 38.05384 | 58.40171 | 32900 ft | 504 kts | 48° |
| 2026-05-05 17:46 | 38.09202 | 58.47649 | 32877 ft | 507 kts | 59° |
| 2026-05-05 17:46 | 38.12888 | 58.55258 | 32857 ft | 507 kts | 53° |
| 2026-05-05 17:47 | 38.17003 | 58.62509 | 32845 ft | 507 kts | 51° |
| 2026-05-05 17:47 | 38.21199 | 58.69754 | 32840 ft | 507 kts | 52° |
| 2026-05-05 17:48 | 38.25366 | 58.77014 | 32839 ft | 508 kts | 52° |
| 2026-05-05 17:48 | 38.29525 | 58.84269 | 32840 ft | 508 kts | 52° |
| 2026-05-05 17:49 | 38.33683 | 58.91504 | 32838 ft | 507 kts | 51° |
| 2026-05-05 17:49 | 38.37853 | 58.98745 | 32836 ft | 508 kts | 51° |
| 2026-05-05 17:50 | 38.42025 | 59.05966 | 32832 ft | 508 kts | 51° |
| 2026-05-05 17:50 | 38.46215 | 59.13217 | 32824 ft | 509 kts | 51° |
| 2026-05-05 17:51 | 38.50401 | 59.20467 | 32823 ft | 508 kts | 51° |
| 2026-05-05 17:51 | 38.54546 | 59.27819 | 32821 ft | 508 kts | 51° |
| 2026-05-05 17:52 | 38.58691 | 59.35062 | 32821 ft | 507 kts | 50° |
| 2026-05-05 17:52 | 38.63107 | 59.42086 | 32824 ft | 505 kts | 47° |
| 2026-05-05 17:53 | 38.67586 | 59.48988 | 32832 ft | 505 kts | 47° |
| 2026-05-05 17:53 | 38.72034 | 59.55905 | 32833 ft | 505 kts | 47° |
| 2026-05-05 17:54 | 38.76496 | 59.62852 | 32835 ft | 505 kts | 47° |
| 2026-05-05 17:54 | 38.80969 | 59.69812 | 32834 ft | 505 kts | 47° |
| 2026-05-05 17:55 | 38.85452 | 59.76773 | 32843 ft | 505 kts | 47° |
| 2026-05-05 17:55 | 38.89901 | 59.83672 | 32842 ft | 505 kts | 47° |
| 2026-05-05 17:56 | 38.94388 | 59.90622 | 32851 ft | 505 kts | 47° |
| 2026-05-05 17:56 | 38.98864 | 59.97553 | 32863 ft | 504 kts | 47° |
| 2026-05-05 17:57 | 39.03333 | 60.04455 | 32868 ft | 503 kts | 47° |
| 2026-05-05 17:57 | 39.07820 | 60.11382 | 32875 ft | 502 kts | 47° |
| 2026-05-05 17:58 | 39.12298 | 60.18280 | 32883 ft | 502 kts | 47° |
| 2026-05-05 17:58 | 39.16766 | 60.25180 | 32884 ft | 503 kts | 47° |
| 2026-05-05 17:59 | 39.21181 | 60.32174 | 32889 ft | 504 kts | 48° |
| 2026-05-05 17:59 | 39.25598 | 60.39201 | 32886 ft | 504 kts | 47° |
| 2026-05-05 18:00 | 39.30026 | 60.46186 | 32889 ft | 504 kts | 47° |
| 2026-05-05 18:00 | 39.34465 | 60.53210 | 32894 ft | 505 kts | 47° |
| 2026-05-05 18:01 | 39.38908 | 60.60207 | 32896 ft | 506 kts | 47° |
| 2026-05-05 18:01 | 39.43357 | 60.67232 | 32892 ft | 506 kts | 47° |
| 2026-05-05 18:02 | 39.47836 | 60.74317 | 32892 ft | 506 kts | 48° |
| 2026-05-05 18:02 | 39.52202 | 60.81378 | 32899 ft | 506 kts | 48° |
| 2026-05-05 18:03 | 39.56616 | 60.88531 | 32906 ft | 506 kts | 48° |
| 2026-05-05 18:03 | 39.61021 | 60.95647 | 32913 ft | 507 kts | 48° |
| 2026-05-05 18:04 | 39.65431 | 61.02754 | 32917 ft | 508 kts | 47° |
| 2026-05-05 18:04 | 39.69885 | 61.09920 | 32921 ft | 508 kts | 47° |
| 2026-05-05 18:05 | 39.74308 | 61.17037 | 32923 ft | 508 kts | 47° |
| 2026-05-05 18:05 | 39.78761 | 61.24188 | 32929 ft | 508 kts | 47° |
| 2026-05-05 18:06 | 39.83197 | 61.31310 | 32931 ft | 509 kts | 47° |
| 2026-05-05 18:06 | 39.87645 | 61.38437 | 32933 ft | 509 kts | 47° |
| 2026-05-05 18:07 | 39.92098 | 61.45680 | 32933 ft | 509 kts | 48° |
| 2026-05-05 18:07 | 39.96444 | 61.52908 | 32932 ft | 509 kts | 48° |
| 2026-05-05 18:08 | 40.00790 | 61.60138 | 32938 ft | 508 kts | 47° |
| 2026-05-05 18:08 | 40.05177 | 61.67402 | 32938 ft | 509 kts | 48° |
| 2026-05-05 18:09 | 40.09544 | 61.74622 | 32938 ft | 509 kts | 48° |
| 2026-05-05 18:09 | 40.13957 | 61.81913 | 32940 ft | 509 kts | 48° |
| 2026-05-05 18:10 | 40.18343 | 61.89154 | 32941 ft | 509 kts | 48° |
| 2026-05-05 18:10 | 40.22742 | 61.96402 | 32946 ft | 509 kts | 48° |
| 2026-05-05 18:11 | 40.27132 | 62.03634 | 32942 ft | 508 kts | 47° |
| 2026-05-05 18:11 | 40.31517 | 62.10844 | 32939 ft | 507 kts | 47° |
| 2026-05-05 18:12 | 40.35954 | 62.18072 | 32923 ft | 505 kts | 45° |
| 2026-05-05 18:12 | 40.41010 | 62.24246 | 32939 ft | 497 kts | 31° |
| 2026-05-05 18:13 | 40.46781 | 62.29186 | 32936 ft | 494 kts | 27° |
| 2026-05-05 18:13 | 40.52598 | 62.34025 | 32933 ft | 495 kts | 28° |
| 2026-05-05 18:14 | 40.58351 | 62.38946 | 32933 ft | 495 kts | 28° |
| 2026-05-05 18:14 | 40.64096 | 62.43901 | 32933 ft | 496 kts | 28° |
| 2026-05-05 18:15 | 40.69897 | 62.48885 | 32937 ft | 495 kts | 28° |
| 2026-05-05 18:15 | 40.75670 | 62.53831 | 32940 ft | 495 kts | 28° |
| 2026-05-05 18:16 | 40.81405 | 62.58741 | 32938 ft | 495 kts | 28° |
| 2026-05-05 18:16 | 40.87204 | 62.63701 | 32939 ft | 495 kts | 28° |
| 2026-05-05 18:17 | 40.92997 | 62.68653 | 32935 ft | 495 kts | 28° |
| 2026-05-05 18:17 | 40.98776 | 62.73582 | 32937 ft | 495 kts | 28° |
| 2026-05-05 18:18 | 41.04540 | 62.78504 | 32941 ft | 494 kts | 28° |
| 2026-05-05 18:18 | 41.10331 | 62.83438 | 32950 ft | 495 kts | 28° |
| 2026-05-05 18:19 | 41.16101 | 62.88393 | 32953 ft | 496 kts | 28° |
| 2026-05-05 18:19 | 41.21866 | 62.93449 | 32958 ft | 496 kts | 29° |
| 2026-05-05 18:20 | 41.27605 | 62.98465 | 32961 ft | 495 kts | 28° |
| 2026-05-05 18:20 | 41.33378 | 63.03492 | 32961 ft | 496 kts | 28° |
| 2026-05-05 18:21 | 41.39156 | 63.08537 | 32966 ft | 495 kts | 28° |
| 2026-05-05 18:21 | 41.44903 | 63.13535 | 32965 ft | 496 kts | 28° |
| 2026-05-05 18:22 | 41.50679 | 63.18578 | 32964 ft | 496 kts | 28° |
| 2026-05-05 18:22 | 41.56456 | 63.23546 | 32961 ft | 495 kts | 27° |
| 2026-05-05 18:23 | 41.62240 | 63.28594 | 32962 ft | 495 kts | 28° |
| 2026-05-05 18:23 | 41.67950 | 63.33657 | 32960 ft | 495 kts | 28° |
| 2026-05-05 18:24 | 41.73694 | 63.38745 | 32958 ft | 495 kts | 28° |
| 2026-05-05 18:24 | 41.79431 | 63.43814 | 32956 ft | 494 kts | 28° |
| 2026-05-05 18:25 | 41.85174 | 63.48880 | 32952 ft | 494 kts | 28° |
| 2026-05-05 18:25 | 41.90933 | 63.53961 | 32954 ft | 494 kts | 28° |
| 2026-05-05 18:26 | 41.96666 | 63.59014 | 32954 ft | 494 kts | 27° |
| 2026-05-05 18:26 | 42.02419 | 63.64080 | 32955 ft | 494 kts | 27° |
| 2026-05-05 18:27 | 42.08199 | 63.69175 | 32947 ft | 494 kts | 28° |
| 2026-05-05 18:27 | 42.13918 | 63.74210 | 32952 ft | 493 kts | 28° |
| 2026-05-05 18:28 | 42.22540 | 63.81801 | 32973 ft | 493 kts | 28° |
| 2026-05-05 18:28 | 42.28268 | 63.86913 | 32985 ft | 493 kts | 28° |
| 2026-05-05 18:29 | 42.33939 | 63.92046 | 32986 ft | 493 kts | 28° |
| 2026-05-05 18:29 | 42.39650 | 63.97174 | 32988 ft | 491 kts | 28° |
| 2026-05-05 18:30 | 42.45329 | 64.02286 | 32991 ft | 491 kts | 28° |
| 2026-05-05 18:30 | 42.51008 | 64.07386 | 32993 ft | 491 kts | 28° |
| 2026-05-05 18:31 | 42.56708 | 64.12444 | 32989 ft | 489 kts | 26° |
| 2026-05-05 18:31 | 42.62646 | 64.16880 | 32997 ft | 484 kts | 20° |
| 2026-05-05 18:32 | 42.68712 | 64.20837 | 33002 ft | 483 kts | 20° |
| 2026-05-05 18:32 | 42.74762 | 64.24805 | 32999 ft | 483 kts | 20° |
| 2026-05-05 18:33 | 42.80800 | 64.28796 | 33001 ft | 482 kts | 20° |
| 2026-05-05 18:33 | 42.86814 | 64.32771 | 32999 ft | 482 kts | 20° |
| 2026-05-05 18:34 | 42.92868 | 64.36766 | 33003 ft | 483 kts | 20° |
| 2026-05-05 18:34 | 42.98901 | 64.40743 | 33004 ft | 483 kts | 20° |
| 2026-05-05 18:35 | 43.04943 | 64.44720 | 33002 ft | 483 kts | 20° |
| 2026-05-05 18:35 | 43.11001 | 64.48703 | 32994 ft | 482 kts | 19° |
| 2026-05-05 18:36 | 43.17058 | 64.52679 | 33002 ft | 482 kts | 19° |
| 2026-05-05 18:36 | 43.23104 | 64.56655 | 33000 ft | 482 kts | 19° |
| 2026-05-05 18:37 | 43.29104 | 64.60588 | 33002 ft | 481 kts | 19° |
| 2026-05-05 18:37 | 43.35120 | 64.64546 | 32993 ft | 480 kts | 19° |
| 2026-05-05 18:38 | 43.41163 | 64.68507 | 32986 ft | 481 kts | 20° |
| 2026-05-05 18:38 | 43.47194 | 64.72574 | 32986 ft | 481 kts | 20° |
| 2026-05-05 18:39 | 43.53196 | 64.76606 | 32985 ft | 481 kts | 20° |
| 2026-05-05 18:39 | 43.59204 | 64.80625 | 32984 ft | 482 kts | 20° |
| 2026-05-05 18:40 | 43.65245 | 64.84685 | 32982 ft | 481 kts | 20° |
| 2026-05-05 18:40 | 43.71247 | 64.88692 | 32975 ft | 480 kts | 20° |
| 2026-05-05 18:41 | 43.77247 | 64.92664 | 32978 ft | 481 kts | 19° |
| 2026-05-05 18:41 | 43.83290 | 64.96755 | 32976 ft | 482 kts | 20° |
| 2026-05-05 18:42 | 43.89299 | 65.00894 | 32969 ft | 482 kts | 20° |
| 2026-05-05 18:42 | 43.95308 | 65.04986 | 32972 ft | 482 kts | 20° |
| 2026-05-05 18:43 | 44.01264 | 65.09087 | 32972 ft | 481 kts | 20° |
| 2026-05-05 18:43 | 44.07266 | 65.13172 | 32965 ft | 480 kts | 20° |
| 2026-05-05 18:44 | 44.13274 | 65.17183 | 32972 ft | 480 kts | 20° |
| 2026-05-05 18:44 | 44.19268 | 65.21334 | 32970 ft | 481 kts | 20° |
| 2026-05-05 18:45 | 44.25231 | 65.25512 | 32972 ft | 481 kts | 20° |
| 2026-05-05 18:45 | 44.31209 | 65.29674 | 32968 ft | 480 kts | 20° |
| 2026-05-05 18:46 | 44.37203 | 65.33846 | 32966 ft | 480 kts | 20° |
| 2026-05-05 18:46 | 44.43163 | 65.38000 | 32962 ft | 479 kts | 20° |
| 2026-05-05 18:47 | 44.49121 | 65.42136 | 32967 ft | 479 kts | 20° |
| 2026-05-05 18:47 | 44.55051 | 65.46275 | 32964 ft | 479 kts | 20° |
| 2026-05-05 18:48 | 44.61008 | 65.50402 | 32967 ft | 479 kts | 20° |
| 2026-05-05 18:48 | 44.66986 | 65.54574 | 32968 ft | 479 kts | 20° |
| 2026-05-05 18:49 | 44.72989 | 65.58725 | 32970 ft | 479 kts | 20° |
| 2026-05-05 18:49 | 44.78917 | 65.62980 | 32972 ft | 479 kts | 21° |
| 2026-05-05 18:50 | 44.84824 | 65.67314 | 32962 ft | 479 kts | 22° |
| 2026-05-05 18:50 | 44.90743 | 65.71628 | 32964 ft | 480 kts | 22° |
| 2026-05-05 18:51 | 44.96673 | 65.75957 | 32966 ft | 479 kts | 22° |
| 2026-05-05 18:51 | 45.02575 | 65.80257 | 32972 ft | 479 kts | 22° |
| 2026-05-05 18:52 | 45.08508 | 65.84580 | 32974 ft | 478 kts | 22° |
| 2026-05-05 18:52 | 45.14407 | 65.88882 | 32983 ft | 478 kts | 22° |
| 2026-05-05 18:53 | 45.20334 | 65.93195 | 32979 ft | 478 kts | 22° |
| 2026-05-05 18:53 | 45.26268 | 65.97521 | 32980 ft | 479 kts | 22° |
| 2026-05-05 18:54 | 45.32189 | 66.01823 | 32982 ft | 479 kts | 22° |
| 2026-05-05 18:54 | 45.38127 | 66.06093 | 32979 ft | 477 kts | 20° |
| 2026-05-05 18:55 | 45.44111 | 66.10116 | 32981 ft | 477 kts | 21° |
| 2026-05-05 18:55 | 45.50078 | 66.14251 | 32985 ft | 478 kts | 21° |
| 2026-05-05 18:56 | 45.56035 | 66.18409 | 32985 ft | 478 kts | 21° |
| 2026-05-05 18:56 | 45.62019 | 66.22578 | 32985 ft | 479 kts | 21° |
| 2026-05-05 18:57 | 45.67992 | 66.26726 | 32989 ft | 479 kts | 21° |
| 2026-05-05 18:57 | 45.73960 | 66.30875 | 32986 ft | 479 kts | 21° |
| 2026-05-05 18:58 | 45.79935 | 66.35020 | 32981 ft | 478 kts | 21° |
| 2026-05-05 18:58 | 45.85938 | 66.39180 | 32981 ft | 478 kts | 21° |
| 2026-05-05 18:59 | 45.91924 | 66.43338 | 32985 ft | 479 kts | 21° |
| 2026-05-05 18:59 | 45.97911 | 66.47478 | 32983 ft | 479 kts | 21° |
| 2026-05-05 19:00 | 46.03903 | 66.51643 | 32982 ft | 479 kts | 21° |
| 2026-05-05 19:00 | 46.09925 | 66.55801 | 32985 ft | 479 kts | 21° |
| 2026-05-05 19:01 | 46.15944 | 66.60040 | 32990 ft | 480 kts | 22° |
| 2026-05-05 19:01 | 46.21914 | 66.64301 | 32999 ft | 480 kts | 22° |
| 2026-05-05 19:02 | 46.27889 | 66.68523 | 32992 ft | 481 kts | 22° |
| 2026-05-05 19:02 | 46.33925 | 66.72815 | 32996 ft | 482 kts | 22° |
| 2026-05-05 19:03 | 46.39920 | 66.77050 | 33002 ft | 481 kts | 22° |
| 2026-05-05 19:03 | 46.45941 | 66.81310 | 33009 ft | 481 kts | 22° |
| 2026-05-05 19:04 | 46.51909 | 66.85640 | 33007 ft | 481 kts | 23° |
| 2026-05-05 19:04 | 46.57912 | 66.90008 | 33014 ft | 481 kts | 23° |
| 2026-05-05 19:05 | 46.63885 | 66.94327 | 33017 ft | 481 kts | 23° |
| 2026-05-05 19:05 | 46.69848 | 66.98661 | 33025 ft | 482 kts | 23° |
| 2026-05-05 19:06 | 46.75873 | 67.03014 | 33025 ft | 482 kts | 23° |
| 2026-05-05 19:06 | 46.81871 | 67.07371 | 33030 ft | 482 kts | 23° |
| 2026-05-05 19:07 | 46.84880 | 67.09548 | 33190 ft | 485 kts | 23° |
| 2026-05-05 19:07 | 46.87871 | 67.11704 | 33875 ft | 483 kts | 23° |
| 2026-05-05 19:07 | 46.90898 | 67.13946 | 34391 ft | 484 kts | 25° |
| 2026-05-05 19:07 | 46.93841 | 67.16297 | 34815 ft | 484 kts | 26° |
| 2026-05-05 19:08 | 46.96756 | 67.18690 | 34939 ft | 482 kts | 26° |
| 2026-05-05 19:08 | 46.99664 | 67.21081 | 34948 ft | 480 kts | 26° |
| 2026-05-05 19:08 | 47.05518 | 67.25802 | 35005 ft | 481 kts | 25° |
| 2026-05-05 19:09 | 47.11417 | 67.30441 | 35014 ft | 481 kts | 23° |
| 2026-05-05 19:09 | 47.17373 | 67.34821 | 35020 ft | 482 kts | 23° |
| 2026-05-05 19:10 | 47.23327 | 67.39305 | 35022 ft | 481 kts | 24° |
| 2026-05-05 19:10 | 47.29287 | 67.43822 | 35028 ft | 482 kts | 24° |
| 2026-05-05 19:11 | 47.35243 | 67.48328 | 35025 ft | 482 kts | 24° |
| 2026-05-05 19:11 | 47.41193 | 67.52815 | 35027 ft | 482 kts | 24° |
| 2026-05-05 19:12 | 47.47180 | 67.57330 | 35025 ft | 481 kts | 24° |
| 2026-05-05 19:12 | 47.53109 | 67.61797 | 35024 ft | 481 kts | 24° |
| 2026-05-05 19:13 | 47.59082 | 67.66298 | 35018 ft | 481 kts | 24° |
| 2026-05-05 19:13 | 47.65070 | 67.70805 | 35016 ft | 482 kts | 24° |
| 2026-05-05 19:14 | 47.70834 | 67.75843 | 35032 ft | 486 kts | 37° |
| 2026-05-05 19:14 | 47.73299 | 67.79345 | 35030 ft | 489 kts | 48° |
| 2026-05-05 19:14 | 47.75309 | 67.83392 | 35032 ft | 492 kts | 57° |
| 2026-05-05 19:15 | 47.78568 | 67.92345 | 35016 ft | 494 kts | 61° |
| 2026-05-05 19:15 | 47.81765 | 68.01354 | 35017 ft | 493 kts | 59° |
| 2026-05-05 19:16 | 47.85108 | 68.10170 | 35031 ft | 493 kts | 59° |
| 2026-05-05 19:16 | 47.88486 | 68.19054 | 35035 ft | 493 kts | 59° |
| 2026-05-05 19:17 | 47.91865 | 68.27940 | 35039 ft | 493 kts | 59° |
| 2026-05-05 19:17 | 47.95260 | 68.36814 | 35044 ft | 494 kts | 59° |
| 2026-05-05 19:18 | 47.98660 | 68.45715 | 35054 ft | 494 kts | 58° |
| 2026-05-05 19:18 | 48.02059 | 68.54560 | 35060 ft | 494 kts | 59° |
| 2026-05-05 19:19 | 48.05468 | 68.63453 | 35063 ft | 494 kts | 58° |
| 2026-05-05 19:19 | 48.08895 | 68.72347 | 35067 ft | 494 kts | 60° |
| 2026-05-05 19:20 | 48.12217 | 68.81318 | 35069 ft | 494 kts | 60° |
| 2026-05-05 19:20 | 48.15528 | 68.90308 | 35066 ft | 494 kts | 60° |
| 2026-05-05 19:21 | 48.18866 | 68.99303 | 35068 ft | 495 kts | 60° |
| 2026-05-05 19:21 | 48.22195 | 69.08234 | 35060 ft | 495 kts | 60° |
| 2026-05-05 19:22 | 48.25557 | 69.17228 | 35055 ft | 495 kts | 60° |
| 2026-05-05 19:22 | 48.28927 | 69.26228 | 35051 ft | 495 kts | 59° |
| 2026-05-05 19:23 | 48.32299 | 69.35210 | 35051 ft | 496 kts | 59° |
| 2026-05-05 19:23 | 48.35682 | 69.44250 | 35050 ft | 496 kts | 60° |
| 2026-05-05 19:24 | 48.38932 | 69.53356 | 35050 ft | 496 kts | 61° |
| 2026-05-05 19:24 | 48.42150 | 69.62449 | 35059 ft | 496 kts | 60° |
| 2026-05-05 19:25 | 48.45406 | 69.71581 | 35060 ft | 496 kts | 61° |
| 2026-05-05 19:25 | 48.48690 | 69.80752 | 35060 ft | 496 kts | 61° |
| 2026-05-05 19:26 | 48.51948 | 69.89816 | 35062 ft | 496 kts | 61° |
| 2026-05-05 19:26 | 48.55244 | 69.98982 | 35074 ft | 495 kts | 61° |
| 2026-05-05 19:27 | 48.58514 | 70.08057 | 35083 ft | 495 kts | 60° |
| 2026-05-05 19:27 | 48.61800 | 70.17154 | 35086 ft | 496 kts | 60° |
| 2026-05-05 19:28 | 48.65101 | 70.26273 | 35088 ft | 497 kts | 60° |
| 2026-05-05 19:28 | 48.68419 | 70.35404 | 35084 ft | 497 kts | 60° |
| 2026-05-05 19:29 | 48.71746 | 70.44548 | 35092 ft | 497 kts | 60° |
| 2026-05-05 19:29 | 48.75042 | 70.53764 | 35093 ft | 497 kts | 62° |
| 2026-05-05 19:30 | 48.78158 | 70.63070 | 35093 ft | 498 kts | 62° |
| 2026-05-05 19:30 | 48.81288 | 70.72420 | 35094 ft | 497 kts | 63° |
| 2026-05-05 19:31 | 48.84435 | 70.81697 | 35086 ft | 497 kts | 62° |
| 2026-05-05 19:31 | 48.87621 | 70.91038 | 35089 ft | 497 kts | 62° |
| 2026-05-05 19:32 | 48.90801 | 71.00355 | 35092 ft | 499 kts | 62° |
| 2026-05-05 19:32 | 48.93976 | 71.09647 | 35090 ft | 500 kts | 62° |
| 2026-05-05 19:33 | 48.97187 | 71.19018 | 35088 ft | 499 kts | 62° |
| 2026-05-05 19:33 | 49.00381 | 71.28326 | 35092 ft | 498 kts | 62° |
| 2026-05-05 19:34 | 49.03604 | 71.37689 | 35094 ft | 498 kts | 62° |
| 2026-05-05 19:35 | 49.08422 | 71.51623 | 35091 ft | 498 kts | 61° |
| 2026-05-05 19:35 | 49.11660 | 71.60968 | 35087 ft | 497 kts | 61° |
| 2026-05-05 19:36 | 49.14772 | 71.70328 | 35087 ft | 498 kts | 64° |
| 2026-05-05 19:36 | 49.17839 | 71.79793 | 35090 ft | 499 kts | 63° |
| 2026-05-05 19:37 | 49.20945 | 71.89271 | 35090 ft | 499 kts | 63° |
| 2026-05-05 19:37 | 49.24075 | 71.98744 | 35091 ft | 499 kts | 63° |
| 2026-05-05 19:38 | 49.27194 | 72.08189 | 35096 ft | 498 kts | 63° |
| 2026-05-05 19:38 | 49.30336 | 72.17642 | 35102 ft | 498 kts | 63° |
| 2026-05-05 19:39 | 49.33460 | 72.27059 | 35103 ft | 499 kts | 62° |
| 2026-05-05 19:39 | 49.36571 | 72.36542 | 35108 ft | 499 kts | 64° |
| 2026-05-05 19:40 | 49.39575 | 72.46131 | 35113 ft | 499 kts | 64° |
| 2026-05-05 19:40 | 49.42584 | 72.55716 | 35112 ft | 501 kts | 63° |
| 2026-05-05 19:41 | 49.45612 | 72.65285 | 35117 ft | 501 kts | 64° |
| 2026-05-05 19:41 | 49.48674 | 72.74919 | 35114 ft | 501 kts | 64° |
| 2026-05-05 19:42 | 49.51741 | 72.84550 | 35121 ft | 501 kts | 64° |
| 2026-05-05 19:42 | 49.54802 | 72.94140 | 35118 ft | 501 kts | 63° |
| 2026-05-05 19:43 | 49.57878 | 73.03750 | 35120 ft | 502 kts | 63° |
| 2026-05-05 19:43 | 49.60960 | 73.13336 | 35112 ft | 502 kts | 63° |
| 2026-05-05 19:44 | 49.64057 | 73.22952 | 35099 ft | 501 kts | 63° |
| 2026-05-05 19:44 | 49.67171 | 73.32545 | 35096 ft | 501 kts | 62° |
| 2026-05-05 19:45 | 49.70593 | 73.41885 | 35097 ft | 501 kts | 57° |
| 2026-05-05 19:45 | 49.74266 | 73.50982 | 35096 ft | 501 kts | 57° |
| 2026-05-05 19:46 | 49.77942 | 73.60153 | 35096 ft | 502 kts | 57° |
| 2026-05-05 19:46 | 49.81588 | 73.69315 | 35099 ft | 502 kts | 58° |
| 2026-05-05 19:47 | 49.85262 | 73.78520 | 35103 ft | 502 kts | 58° |
| 2026-05-05 19:47 | 49.88920 | 73.87673 | 35107 ft | 503 kts | 58° |
| 2026-05-05 19:48 | 49.92616 | 73.96894 | 35109 ft | 503 kts | 57° |
| 2026-05-05 19:48 | 49.96306 | 74.06074 | 35115 ft | 503 kts | 57° |
| 2026-05-05 19:49 | 50.00006 | 74.15247 | 35116 ft | 503 kts | 57° |
| 2026-05-05 19:49 | 50.03708 | 74.24403 | 35120 ft | 502 kts | 57° |
| 2026-05-05 19:50 | 50.07434 | 74.33591 | 35123 ft | 502 kts | 57° |
| 2026-05-05 19:50 | 50.11058 | 74.42801 | 35118 ft | 501 kts | 58° |
| 2026-05-05 19:51 | 50.14652 | 74.52068 | 35122 ft | 501 kts | 58° |
| 2026-05-05 19:51 | 50.18277 | 74.61366 | 35122 ft | 501 kts | 57° |
| 2026-05-05 19:52 | 50.21885 | 74.70576 | 35118 ft | 501 kts | 58° |
| 2026-05-05 19:52 | 50.25550 | 74.79901 | 35116 ft | 501 kts | 58° |
| 2026-05-05 19:53 | 50.29174 | 74.89118 | 35112 ft | 501 kts | 57° |
| 2026-05-05 19:53 | 50.32829 | 74.98360 | 35116 ft | 500 kts | 57° |
| 2026-05-05 19:54 | 50.36476 | 75.07602 | 35111 ft | 500 kts | 57° |
| 2026-05-05 19:54 | 50.40143 | 75.16839 | 35101 ft | 501 kts | 57° |
| 2026-05-05 19:55 | 50.43668 | 75.26180 | 35102 ft | 502 kts | 59° |
| 2026-05-05 19:55 | 50.47173 | 75.35644 | 35097 ft | 502 kts | 58° |
| 2026-05-05 19:56 | 50.50720 | 75.45045 | 35098 ft | 503 kts | 58° |
| 2026-05-05 19:56 | 50.54274 | 75.54506 | 35101 ft | 504 kts | 58° |
| 2026-05-05 19:57 | 50.57821 | 75.63964 | 35098 ft | 504 kts | 58° |
| 2026-05-05 19:57 | 50.61255 | 75.73523 | 35099 ft | 503 kts | 60° |
| 2026-05-05 19:58 | 50.64706 | 75.83161 | 35094 ft | 504 kts | 59° |
| 2026-05-05 19:58 | 50.68160 | 75.92730 | 35089 ft | 504 kts | 59° |
| 2026-05-05 19:59 | 50.71624 | 76.02290 | 35084 ft | 505 kts | 59° |
| 2026-05-05 19:59 | 50.75088 | 76.11834 | 35076 ft | 505 kts | 59° |
| 2026-05-05 20:00 | 50.78574 | 76.21416 | 35064 ft | 505 kts | 58° |
| 2026-05-05 20:00 | 50.82084 | 76.31042 | 35054 ft | 505 kts | 58° |
| 2026-05-05 20:01 | 50.85585 | 76.40608 | 35054 ft | 505 kts | 58° |
| 2026-05-05 20:01 | 50.89092 | 76.50184 | 35047 ft | 505 kts | 58° |
| 2026-05-05 20:02 | 50.92613 | 76.59751 | 35042 ft | 504 kts | 58° |
| 2026-05-05 20:02 | 50.96048 | 76.69380 | 35037 ft | 504 kts | 60° |
| 2026-05-05 20:03 | 50.99445 | 76.79111 | 35037 ft | 504 kts | 59° |
| 2026-05-05 20:03 | 51.02850 | 76.88789 | 35028 ft | 503 kts | 59° |
| 2026-05-05 20:04 | 51.06265 | 76.98430 | 35027 ft | 503 kts | 59° |
| 2026-05-05 20:04 | 51.09699 | 77.08114 | 35026 ft | 504 kts | 59° |
| 2026-05-05 20:05 | 51.13145 | 77.17796 | 35023 ft | 504 kts | 59° |
| 2026-05-05 20:05 | 51.16580 | 77.27428 | 35019 ft | 503 kts | 58° |
| 2026-05-05 20:06 | 51.20015 | 77.37149 | 35024 ft | 504 kts | 59° |
| 2026-05-05 20:06 | 51.23328 | 77.46909 | 35024 ft | 503 kts | 59° |
| 2026-05-05 20:07 | 51.26644 | 77.56692 | 35024 ft | 502 kts | 59° |
| 2026-05-05 20:07 | 51.29985 | 77.66470 | 35015 ft | 502 kts | 60° |
| 2026-05-05 20:08 | 51.33343 | 77.76246 | 35013 ft | 502 kts | 60° |
| 2026-05-05 20:08 | 51.36696 | 77.86005 | 35017 ft | 502 kts | 59° |
| 2026-05-05 20:09 | 51.40073 | 77.95813 | 35016 ft | 502 kts | 59° |
| 2026-05-05 20:09 | 51.43431 | 78.05534 | 35016 ft | 502 kts | 59° |
| 2026-05-05 20:10 | 51.46802 | 78.15251 | 35017 ft | 502 kts | 59° |
| 2026-05-05 20:10 | 51.50187 | 78.25002 | 35024 ft | 502 kts | 58° |
| 2026-05-05 20:11 | 51.53554 | 78.34824 | 35019 ft | 502 kts | 60° |
| 2026-05-05 20:11 | 51.56754 | 78.44707 | 35022 ft | 502 kts | 60° |
| 2026-05-05 20:12 | 51.59963 | 78.54627 | 35019 ft | 502 kts | 60° |
| 2026-05-05 20:12 | 51.63194 | 78.64527 | 35022 ft | 502 kts | 59° |
| 2026-05-05 20:13 | 51.66450 | 78.74444 | 35015 ft | 502 kts | 60° |
| 2026-05-05 20:13 | 51.69720 | 78.84392 | 35013 ft | 502 kts | 60° |
| 2026-05-05 20:14 | 51.72987 | 78.94295 | 35011 ft | 501 kts | 60° |
| 2026-05-05 20:14 | 51.76257 | 79.04177 | 35014 ft | 501 kts | 59° |
| 2026-05-05 20:15 | 51.79532 | 79.14057 | 35016 ft | 501 kts | 59° |
| 2026-05-05 20:15 | 51.82919 | 79.23907 | 35016 ft | 500 kts | 56° |
| 2026-05-05 20:16 | 51.86678 | 79.33318 | 35017 ft | 499 kts | 53° |
| 2026-05-05 20:16 | 51.90511 | 79.42590 | 35014 ft | 499 kts | 53° |
| 2026-05-05 20:17 | 51.94329 | 79.51946 | 35019 ft | 499 kts | 54° |
| 2026-05-05 20:17 | 51.98125 | 79.61288 | 35015 ft | 498 kts | 53° |
| 2026-05-05 20:18 | 52.01942 | 79.70655 | 35012 ft | 497 kts | 54° |
| 2026-05-05 20:18 | 52.05770 | 79.80010 | 35019 ft | 497 kts | 54° |
| 2026-05-05 20:19 | 52.09594 | 79.89336 | 35020 ft | 497 kts | 54° |
| 2026-05-05 20:19 | 52.13422 | 79.98656 | 35022 ft | 497 kts | 54° |
| 2026-05-05 20:20 | 52.17240 | 80.07937 | 35023 ft | 496 kts | 54° |
| 2026-05-05 20:20 | 52.21069 | 80.17229 | 35027 ft | 496 kts | 53° |
| 2026-05-05 20:21 | 52.24934 | 80.26575 | 35026 ft | 495 kts | 53° |
| 2026-05-05 20:21 | 52.28782 | 80.35850 | 35026 ft | 495 kts | 53° |
| 2026-05-05 20:22 | 52.32635 | 80.45127 | 35028 ft | 496 kts | 53° |
| 2026-05-05 20:22 | 52.36403 | 80.54582 | 35029 ft | 497 kts | 54° |
| 2026-05-05 20:23 | 52.40073 | 80.64104 | 35028 ft | 497 kts | 54° |
| 2026-05-05 20:23 | 52.43784 | 80.73669 | 35020 ft | 497 kts | 55° |
| 2026-05-05 20:24 | 52.47485 | 80.83146 | 35022 ft | 497 kts | 54° |
| 2026-05-05 20:24 | 52.51213 | 80.92656 | 35023 ft | 497 kts | 54° |
| 2026-05-05 20:25 | 52.54962 | 81.02205 | 35020 ft | 498 kts | 54° |
| 2026-05-05 20:25 | 52.58709 | 81.11738 | 35017 ft | 498 kts | 54° |
| 2026-05-05 20:26 | 52.62474 | 81.21295 | 35016 ft | 499 kts | 54° |
| 2026-05-05 20:26 | 52.66229 | 81.30812 | 35018 ft | 499 kts | 53° |
| 2026-05-05 20:27 | 52.70025 | 81.40401 | 35014 ft | 499 kts | 53° |
| 2026-05-05 20:27 | 52.73807 | 81.49927 | 35013 ft | 499 kts | 53° |
| 2026-05-05 20:28 | 52.77607 | 81.59489 | 35013 ft | 498 kts | 53° |
| 2026-05-05 20:28 | 52.81335 | 81.69134 | 35009 ft | 499 kts | 54° |
| 2026-05-05 20:29 | 52.85006 | 81.78797 | 35009 ft | 499 kts | 54° |
| 2026-05-05 20:29 | 52.88644 | 81.88520 | 35010 ft | 499 kts | 55° |
| 2026-05-05 20:30 | 52.92268 | 81.98334 | 35012 ft | 499 kts | 54° |
| 2026-05-05 20:30 | 52.95882 | 82.08106 | 35016 ft | 500 kts | 54° |
| 2026-05-05 20:31 | 52.99517 | 82.17899 | 35013 ft | 500 kts | 54° |
| 2026-05-05 20:31 | 53.03182 | 82.27747 | 35018 ft | 499 kts | 54° |
| 2026-05-05 20:32 | 53.06813 | 82.37479 | 35019 ft | 499 kts | 54° |
| 2026-05-05 20:32 | 53.10475 | 82.47286 | 35018 ft | 498 kts | 53° |
| 2026-05-05 20:33 | 53.14115 | 82.57009 | 35020 ft | 497 kts | 53° |
| 2026-05-05 20:33 | 53.17772 | 82.66730 | 35015 ft | 497 kts | 54° |
| 2026-05-05 20:34 | 53.21444 | 82.76490 | 35012 ft | 498 kts | 54° |
| 2026-05-05 20:34 | 53.25126 | 82.86264 | 35014 ft | 497 kts | 54° |
| 2026-05-05 20:35 | 53.28777 | 82.96004 | 34995 ft | 494 kts | 49° |
| 2026-05-05 20:35 | 53.33564 | 83.03944 | 35025 ft | 479 kts | 30° |
| 2026-05-05 20:36 | 53.39147 | 83.09794 | 35021 ft | 475 kts | 25° |
| 2026-05-05 20:36 | 53.44804 | 83.15572 | 35011 ft | 476 kts | 26° |
| 2026-05-05 20:37 | 53.50355 | 83.21503 | 35016 ft | 476 kts | 27° |
| 2026-05-05 20:37 | 53.55950 | 83.27545 | 35009 ft | 477 kts | 27° |
| 2026-05-05 20:38 | 53.61512 | 83.33524 | 35010 ft | 477 kts | 26° |
| 2026-05-05 20:38 | 53.67112 | 83.39522 | 35008 ft | 476 kts | 26° |
| 2026-05-05 20:39 | 53.72694 | 83.45480 | 35001 ft | 475 kts | 26° |
| 2026-05-05 20:39 | 53.78227 | 83.51573 | 35001 ft | 477 kts | 30° |
| 2026-05-05 20:40 | 53.83354 | 83.58759 | 35009 ft | 484 kts | 37° |
| 2026-05-05 20:40 | 53.88130 | 83.66821 | 34998 ft | 486 kts | 40° |
| 2026-05-05 20:41 | 53.92851 | 83.74923 | 34998 ft | 487 kts | 39° |
| 2026-05-05 20:41 | 53.97664 | 83.83021 | 34989 ft | 486 kts | 39° |
| 2026-05-05 20:42 | 54.02465 | 83.91092 | 34990 ft | 486 kts | 39° |
| 2026-05-05 20:42 | 54.07252 | 83.99180 | 34991 ft | 485 kts | 38° |
| 2026-05-05 20:43 | 54.12063 | 84.07196 | 35008 ft | 486 kts | 39° |
| 2026-05-05 20:43 | 54.16789 | 84.15332 | 35018 ft | 487 kts | 39° |
| 2026-05-05 20:44 | 54.21563 | 84.23606 | 35020 ft | 486 kts | 39° |
| 2026-05-05 20:44 | 54.26299 | 84.31792 | 35023 ft | 486 kts | 39° |
| 2026-05-05 20:45 | 54.33414 | 84.44039 | 35019 ft | 485 kts | 38° |
| 2026-05-05 20:45 | 54.38157 | 84.52202 | 35015 ft | 483 kts | 38° |
| 2026-05-05 20:46 | 54.42887 | 84.60317 | 35018 ft | 483 kts | 38° |
| 2026-05-05 20:46 | 54.47649 | 84.68483 | 35009 ft | 485 kts | 38° |
| 2026-05-05 20:47 | 54.52409 | 84.76636 | 35007 ft | 484 kts | 38° |
| 2026-05-05 20:47 | 54.57182 | 84.84778 | 35000 ft | 484 kts | 38° |
| 2026-05-05 20:48 | 54.61897 | 84.93093 | 34998 ft | 484 kts | 39° |
| 2026-05-05 20:48 | 54.66524 | 85.01444 | 34996 ft | 483 kts | 39° |
| 2026-05-05 20:49 | 54.71192 | 85.09716 | 35003 ft | 482 kts | 38° |
| 2026-05-05 20:49 | 54.75956 | 85.17954 | 35006 ft | 483 kts | 38° |
| 2026-05-05 20:50 | 54.80623 | 85.26291 | 35017 ft | 484 kts | 39° |
| 2026-05-05 20:50 | 54.85317 | 85.34597 | 35018 ft | 482 kts | 37° |
| 2026-05-05 20:51 | 54.89990 | 85.42932 | 35016 ft | 484 kts | 38° |
| 2026-05-05 20:51 | 54.94619 | 85.51434 | 35019 ft | 484 kts | 39° |
| 2026-05-05 20:52 | 54.99247 | 85.59952 | 35021 ft | 484 kts | 38° |
| 2026-05-05 20:52 | 55.03954 | 85.68318 | 35009 ft | 482 kts | 38° |
| 2026-05-05 20:53 | 55.08601 | 85.76744 | 35015 ft | 483 kts | 39° |
| 2026-05-05 20:53 | 55.13216 | 85.85287 | 35028 ft | 482 kts | 39° |
| 2026-05-05 20:54 | 55.17840 | 85.93806 | 35020 ft | 482 kts | 39° |
| 2026-05-05 20:54 | 55.22451 | 86.02286 | 35024 ft | 481 kts | 39° |
| 2026-05-05 20:55 | 55.26758 | 86.11296 | 35023 ft | 491 kts | 49° |
| 2026-05-05 20:55 | 55.29974 | 86.22036 | 35020 ft | 503 kts | 60° |
| 2026-05-05 20:56 | 55.32572 | 86.33440 | 35015 ft | 504 kts | 62° |
| 2026-05-05 20:56 | 55.35161 | 86.44843 | 35010 ft | 502 kts | 60° |
| 2026-05-05 20:57 | 55.37848 | 86.56177 | 35012 ft | 502 kts | 60° |
| 2026-05-05 20:57 | 55.40516 | 86.67436 | 35005 ft | 501 kts | 60° |
| 2026-05-05 20:58 | 55.43214 | 86.78780 | 35000 ft | 503 kts | 60° |
| 2026-05-05 20:58 | 55.45914 | 86.90106 | 34995 ft | 503 kts | 60° |
| 2026-05-05 20:59 | 55.48624 | 87.01431 | 35002 ft | 502 kts | 59° |
| 2026-05-05 20:59 | 55.51333 | 87.12703 | 35000 ft | 500 kts | 59° |
| 2026-05-05 21:00 | 55.54061 | 87.24005 | 35004 ft | 500 kts | 59° |
| 2026-05-05 21:00 | 55.56786 | 87.35240 | 35014 ft | 499 kts | 58° |
| 2026-05-05 21:01 | 55.59524 | 87.46496 | 35017 ft | 498 kts | 58° |
| 2026-05-05 21:01 | 55.62273 | 87.57665 | 35020 ft | 497 kts | 58° |
| 2026-05-05 21:02 | 55.64908 | 87.68982 | 35012 ft | 499 kts | 61° |
| 2026-05-05 21:02 | 55.67413 | 87.80477 | 35016 ft | 501 kts | 61° |
| 2026-05-05 21:03 | 55.69912 | 87.91993 | 35016 ft | 501 kts | 60° |
| 2026-05-05 21:03 | 55.72438 | 88.03509 | 35024 ft | 500 kts | 60° |
| 2026-05-05 21:04 | 55.74952 | 88.14883 | 35021 ft | 499 kts | 60° |
| 2026-05-05 21:04 | 55.77510 | 88.26396 | 35011 ft | 499 kts | 59° |
| 2026-05-05 21:05 | 55.80045 | 88.37779 | 35020 ft | 499 kts | 59° |
| 2026-05-05 21:05 | 55.82597 | 88.49208 | 35014 ft | 497 kts | 59° |
| 2026-05-05 21:06 | 55.85160 | 88.60622 | 35020 ft | 498 kts | 59° |
| 2026-05-05 21:06 | 55.87724 | 88.72002 | 35007 ft | 497 kts | 59° |
| 2026-05-05 21:07 | 55.90321 | 88.83448 | 35018 ft | 497 kts | 59° |
| 2026-05-05 21:07 | 55.92908 | 88.94797 | 35021 ft | 496 kts | 59° |
| 2026-05-05 21:08 | 55.95332 | 89.06304 | 35010 ft | 498 kts | 61° |
| 2026-05-05 21:08 | 55.97812 | 89.17736 | 35006 ft | 495 kts | 60° |
| 2026-05-05 21:09 | 56.00206 | 89.29270 | 35000 ft | 495 kts | 61° |
| 2026-05-05 21:09 | 56.02525 | 89.40847 | 35007 ft | 496 kts | 62° |
| 2026-05-05 21:10 | 56.04843 | 89.52414 | 34996 ft | 495 kts | 62° |
| 2026-05-05 21:10 | 56.07179 | 89.63995 | 34996 ft | 494 kts | 61° |
| 2026-05-05 21:11 | 56.08348 | 89.69750 | 34793 ft | 496 kts | 62° |
| 2026-05-05 21:11 | 56.09538 | 89.75563 | 33960 ft | 501 kts | 62° |
| 2026-05-05 21:11 | 56.10730 | 89.81387 | 33102 ft | 504 kts | 62° |
| 2026-05-05 21:11 | 56.11937 | 89.87274 | 32169 ft | 509 kts | 62° |
| 2026-05-05 21:12 | 56.13155 | 89.93214 | 31463 ft | 507 kts | 62° |
| 2026-05-05 21:12 | 56.14372 | 89.99162 | 30566 ft | 511 kts | 62° |
| 2026-05-05 21:12 | 56.15595 | 90.05122 | 29867 ft | 507 kts | 62° |
| 2026-05-05 21:12 | 56.16800 | 90.10992 | 29165 ft | 504 kts | 62° |
| 2026-05-05 21:13 | 56.18024 | 90.16901 | 28251 ft | 505 kts | 63° |
| 2026-05-05 21:13 | 56.19239 | 90.22748 | 27341 ft | 505 kts | 63° |
| 2026-05-05 21:13 | 56.20459 | 90.28607 | 26416 ft | 506 kts | 63° |
| 2026-05-05 21:13 | 56.21697 | 90.34541 | 25424 ft | 508 kts | 63° |
| 2026-05-05 21:14 | 56.22930 | 90.40446 | 24492 ft | 508 kts | 63° |
| 2026-05-05 21:14 | 56.24171 | 90.46379 | 23642 ft | 505 kts | 64° |
| 2026-05-05 21:14 | 56.25391 | 90.52284 | 22867 ft | 502 kts | 65° |
| 2026-05-05 21:14 | 56.26435 | 90.58243 | 22116 ft | 501 kts | 70° |
| 2026-05-05 21:15 | 56.27161 | 90.64322 | 21357 ft | 501 kts | 76° |
| 2026-05-05 21:15 | 56.27527 | 90.70544 | 20591 ft | 500 kts | 83° |
| 2026-05-05 21:15 | 56.27680 | 90.76739 | 19818 ft | 497 kts | 85° |
| 2026-05-05 21:15 | 56.27759 | 90.82916 | 18989 ft | 489 kts | 85° |
| 2026-05-05 21:16 | 56.27827 | 90.88911 | 18281 ft | 474 kts | 85° |
| 2026-05-05 21:16 | 56.27927 | 90.94780 | 17763 ft | 463 kts | 85° |
| 2026-05-05 21:16 | 56.28052 | 91.00497 | 17191 ft | 461 kts | 84° |
| 2026-05-05 21:16 | 56.28191 | 91.06195 | 16553 ft | 459 kts | 84° |
| 2026-05-05 21:17 | 56.28225 | 91.11979 | 15855 ft | 458 kts | 88° |
| 2026-05-05 21:17 | 56.28030 | 91.17671 | 15154 ft | 458 kts | 93° |
| 2026-05-05 21:17 | 56.27626 | 91.23294 | 14683 ft | 452 kts | 96° |
| 2026-05-05 21:17 | 56.27132 | 91.28853 | 14605 ft | 448 kts | 97° |
| 2026-05-05 21:18 | 56.26631 | 91.34355 | 14498 ft | 445 kts | 96° |
| 2026-05-05 21:18 | 56.26159 | 91.39796 | 14397 ft | 443 kts | 96° |
| 2026-05-05 21:18 | 56.25703 | 91.45264 | 14306 ft | 443 kts | 96° |
| 2026-05-05 21:18 | 56.25256 | 91.50741 | 14212 ft | 443 kts | 96° |
| 2026-05-05 21:19 | 56.24811 | 91.56218 | 14119 ft | 443 kts | 95° |
| 2026-05-05 21:19 | 56.24373 | 91.61643 | 14013 ft | 443 kts | 95° |
| 2026-05-05 21:19 | 56.24079 | 91.67120 | 13759 ft | 441 kts | 90° |
| 2026-05-05 21:19 | 56.24178 | 91.72588 | 13255 ft | 437 kts | 81° |
| 2026-05-05 21:20 | 56.24680 | 91.77950 | 12702 ft | 430 kts | 75° |
| 2026-05-05 21:20 | 56.25329 | 91.83186 | 12164 ft | 426 kts | 75° |
| 2026-05-05 21:20 | 56.25979 | 91.88306 | 11682 ft | 420 kts | 75° |
| 2026-05-05 21:20 | 56.26581 | 91.93366 | 11228 ft | 413 kts | 76° |
| 2026-05-05 21:21 | 56.27152 | 91.98405 | 10815 ft | 406 kts | 76° |
| 2026-05-05 21:21 | 56.27700 | 92.03343 | 10416 ft | 399 kts | 76° |
| 2026-05-05 21:21 | 56.28233 | 92.08180 | 10039 ft | 392 kts | 76° |
| 2026-05-05 21:21 | 56.28751 | 92.12872 | 9989 ft | 376 kts | 76° |
| 2026-05-05 21:22 | 56.29207 | 92.17411 | 9967 ft | 361 kts | 80° |
| 2026-05-05 21:22 | 56.29380 | 92.21809 | 9809 ft | 353 kts | 88° |
| 2026-05-05 21:22 | 56.29229 | 92.26233 | 9381 ft | 353 kts | 95° |
| 2026-05-05 21:22 | 56.28919 | 92.30551 | 9081 ft | 348 kts | 97° |
| 2026-05-05 21:23 | 56.28571 | 92.34800 | 8985 ft | 332 kts | 97° |
| 2026-05-05 21:23 | 56.28265 | 92.38766 | 8956 ft | 308 kts | 96° |
| 2026-05-05 21:23 | 56.28011 | 92.42423 | 8735 ft | 289 kts | 95° |
| 2026-05-05 21:23 | 56.27774 | 92.45954 | 8345 ft | 278 kts | 95° |
| 2026-05-05 21:24 | 56.27557 | 92.49336 | 8020 ft | 268 kts | 95° |
| 2026-05-05 21:24 | 56.27350 | 92.52635 | 7752 ft | 261 kts | 95° |
| 2026-05-05 21:24 | 56.27154 | 92.55834 | 7525 ft | 258 kts | 95° |
| 2026-05-05 21:24 | 56.26951 | 92.59063 | 7266 ft | 259 kts | 96° |
| 2026-05-05 21:25 | 56.26744 | 92.62276 | 6979 ft | 258 kts | 96° |
| 2026-05-05 21:25 | 56.26528 | 92.65426 | 6695 ft | 251 kts | 99° |
| 2026-05-05 21:25 | 56.26185 | 92.68428 | 6440 ft | 237 kts | 107° |
| 2026-05-05 21:25 | 56.25663 | 92.71130 | 6200 ft | 225 kts | 115° |
| 2026-05-05 21:26 | 56.25034 | 92.73629 | 6040 ft | 215 kts | 118° |
| 2026-05-05 21:26 | 56.24373 | 92.76069 | 5866 ft | 218 kts | 119° |
| 2026-05-05 21:26 | 56.23730 | 92.78522 | 5606 ft | 217 kts | 118° |
| 2026-05-05 21:26 | 56.23117 | 92.80992 | 5386 ft | 215 kts | 116° |
| 2026-05-05 21:27 | 56.22335 | 92.83212 | 5159 ft | 206 kts | 140° |
| 2026-05-05 21:27 | 56.21115 | 92.84395 | 4982 ft | 196 kts | 175° |
| 2026-05-05 21:27 | 56.19849 | 92.84133 | 4767 ft | 176 kts | 205° |
| 2026-05-05 21:27 | 56.18780 | 92.83235 | 4539 ft | 164 kts | 210° |
| 2026-05-05 21:28 | 56.17819 | 92.82302 | 4428 ft | 154 kts | 211° |
| 2026-05-05 21:28 | 56.16860 | 92.81373 | 4361 ft | 156 kts | 210° |
| 2026-05-05 21:28 | 56.15889 | 92.80525 | 4224 ft | 157 kts | 207° |
| 2026-05-05 21:28 | 56.14883 | 92.79748 | 4078 ft | 156 kts | 206° |
| 2026-05-05 21:29 | 56.13893 | 92.78985 | 3941 ft | 155 kts | 206° |
| 2026-05-05 21:29 | 56.12891 | 92.78202 | 3781 ft | 157 kts | 205° |
| 2026-05-05 21:29 | 56.11963 | 92.77280 | 3579 ft | 153 kts | 227° |
| 2026-05-05 21:29 | 56.11588 | 92.75563 | 3560 ft | 151 kts | 263° |
| 2026-05-05 21:30 | 56.11696 | 92.73645 | 3316 ft | 162 kts | 277° |
| 2026-05-05 21:30 | 56.12015 | 92.71746 | 3028 ft | 154 kts | 284° |
| 2026-05-05 21:30 | 56.12409 | 92.70022 | 3036 ft | 148 kts | 287° |
| 2026-05-05 21:30 | 56.12833 | 92.68278 | 2884 ft | 156 kts | 287° |
| 2026-05-05 21:31 | 56.13262 | 92.66493 | 2632 ft | 154 kts | 288° |
| 2026-05-05 21:31 | 56.13674 | 92.64759 | 2471 ft | 152 kts | 288° |
| 2026-05-05 21:31 | 56.14086 | 92.62978 | 2284 ft | 154 kts | 289° |
| 2026-05-05 21:31 | 56.14495 | 92.61214 | 2084 ft | 151 kts | 290° |
| 2026-05-05 21:32 | 56.14909 | 92.59448 | 1834 ft | 153 kts | 290° |
| 2026-05-05 21:32 | 56.15318 | 92.57715 | 1667 ft | 154 kts | 290° |
| 2026-05-05 21:32 | 56.15746 | 92.55920 | 1485 ft | 156 kts | 290° |
| 2026-05-05 21:32 | 56.16166 | 92.54150 | 1244 ft | 156 kts | 288° |
| 2026-05-05 21:33 | 56.16573 | 92.52343 | 1062 ft | 155 kts | 290° |
| 2026-05-05 21:33 | 56.16978 | 92.50619 | 952 ft | 142 kts | 291° |
| 2026-05-05 21:33 | 56.17284 | 92.49344 | 951 ft | 69 kts | 293° |
| 2026-05-05 21:33 | 56.17454 | 92.48641 | 951 ft | 60 kts | 294° |
| 2026-05-05 21:34 | 56.17604 | 92.48001 | 951 ft | 48 kts | 292° |
| 2026-05-05 21:34 | 56.17712 | 92.47565 | 951 ft | 33 kts | 294° |
| 2026-05-05 21:34 | 56.17795 | 92.47206 | 951 ft | 30 kts | 293° |
| 2026-05-05 21:34 | 56.17872 | 92.46876 | 951 ft | 27 kts | 294° |
| 2026-05-05 21:35 | 56.17932 | 92.46655 | 951 ft | 13 kts | 318° |
| 2026-05-05 21:35 | 56.18023 | 92.46665 | 951 ft | 15 kts | 20° |
| 2026-05-05 21:35 | 56.18129 | 92.46743 | 951 ft | 17 kts | 24° |
| 2026-05-05 21:35 | 56.18224 | 92.46817 | 951 ft | 11 kts | 25° |
| 2026-05-05 21:36 | 56.18294 | 92.46801 | 951 ft | 12 kts | 309° |
| 2026-05-05 21:36 | 56.18330 | 92.46672 | 951 ft | 2 kts | 292° |
| 2026-05-05 21:40 | 56.18325 | 92.46695 | 951 ft | 2 kts | 292° |
| 2026-05-05 21:40 | 56.18319 | 92.46719 | 951 ft | 2 kts | 291° |
| 2026-05-05 21:40 | 56.18316 | 92.46745 | 951 ft | 2 kts | 275° |
| 2026-05-05 21:40 | 56.18316 | 92.46772 | 951 ft | 2 kts | 262° |
| 2026-05-05 21:41 | 56.18320 | 92.46797 | 951 ft | 2 kts | 248° |
| 2026-05-05 21:41 | 56.18327 | 92.46821 | 951 ft | 2 kts | 235° |
| 2026-05-05 21:41 | 56.18337 | 92.46841 | 951 ft | 2 kts | 221° |
| 2026-05-05 21:41 | 56.18348 | 92.46857 | 951 ft | 2 kts | 208° |
| 2026-05-05 21:42 | 56.18362 | 92.46867 | 951 ft | 2 kts | 202° |
| 2026-05-05 21:42 | 56.18372 | 92.46874 | 951 ft | 0 kts | 204° |
| 2026-05-05 21:42 | 56.18372 | 92.46875 | 951 ft | 0 kts | 204° |